sensor_id;sensor_type;location;lat;lon;timestamp;pressure;altitude;pressure_sealevel;temperature;humidity
43312;BME280;30041;48.300;16.352;2022-10-31T00:00:51;100349.25;;;24.30;49.62
43312;BME280;30041;48.300;16.352;2022-10-31T00:03:17;100356.56;;;24.29;49.47
43312;BME280;30041;48.300;16.352;2022-10-31T00:05:48;100348.44;;;24.29;49.33
43312;BME280;30041;48.300;16.352;2022-10-31T00:08:15;100352.78;;;24.30;49.78
43312;BME280;30041;48.300;16.352;2022-10-31T00:10:42;100352.28;;;24.33;49.42
43312;BME280;30041;48.300;16.352;2022-10-31T00:13:09;100354.75;;;24.35;49.60
43312;BME280;30041;48.300;16.352;2022-10-31T00:15:36;100352.63;;;24.37;49.18
43312;BME280;30041;48.300;16.352;2022-10-31T00:18:02;100344.75;;;24.35;49.31
43312;BME280;30041;48.300;16.352;2022-10-31T00:20:29;100353.44;;;24.37;49.33
43312;BME280;30041;48.300;16.352;2022-10-31T00:22:57;100349.56;;;24.33;49.60
43312;BME280;30041;48.300;16.352;2022-10-31T00:25:23;100353.72;;;24.36;49.54
43312;BME280;30041;48.300;16.352;2022-10-31T00:27:49;100352.88;;;24.35;49.26
43312;BME280;30041;48.300;16.352;2022-10-31T00:30:14;100352.88;;;24.35;49.33
43312;BME280;30041;48.300;16.352;2022-10-31T00:32:40;100354.53;;;24.36;49.62
43312;BME280;30041;48.300;16.352;2022-10-31T00:35:06;100354.03;;;24.39;49.28
43312;BME280;30041;48.300;16.352;2022-10-31T00:37:31;100347.22;;;24.37;49.43
43312;BME280;30041;48.300;16.352;2022-10-31T00:39:57;100347.22;;;24.37;49.07
43312;BME280;30041;48.300;16.352;2022-10-31T00:42:22;100351.56;;;24.38;49.35
43312;BME280;30041;48.300;16.352;2022-10-31T00:44:48;100359.44;;;24.39;49.54
43312;BME280;30041;48.300;16.352;2022-10-31T00:47:14;100357.56;;;24.40;49.43
43312;BME280;30041;48.300;16.352;2022-10-31T00:49:39;100353.22;;;24.39;49.47
43312;BME280;30041;48.300;16.352;2022-10-31T00:52:05;100354.84;;;24.40;49.33
43312;BME280;30041;48.300;16.352;2022-10-31T00:54:30;100354.03;;;24.39;49.60
43312;BME280;30041;48.300;16.352;2022-10-31T00:56:56;100358.16;;;24.42;49.29
43312;BME280;30041;48.300;16.352;2022-10-31T00:59:22;100351.41;;;24.44;48.97
43312;BME280;30041;48.300;16.352;2022-10-31T01:01:47;100350.28;;;24.40;49.18
43312;BME280;30041;48.300;16.352;2022-10-31T01:04:13;100353.53;;;24.42;49.15
43312;BME280;30041;48.300;16.352;2022-10-31T01:06:38;100351.09;;;24.41;49.33
43312;BME280;30041;48.300;16.352;2022-10-31T01:09:04;100341.06;;;24.41;49.28
43312;BME280;30041;48.300;16.352;2022-10-31T01:11:30;100348.47;;;24.46;49.28
43312;BME280;30041;48.300;16.352;2022-10-31T01:13:55;100353.31;;;24.44;49.23
43312;BME280;30041;48.300;16.352;2022-10-31T01:16:24;100354.84;;;24.40;49.34
43312;BME280;30041;48.300;16.352;2022-10-31T01:18:51;100347.91;;;24.44;49.32
43312;BME280;30041;48.300;16.352;2022-10-31T01:21:19;100345.19;;;24.44;49.43
43312;BME280;30041;48.300;16.352;2022-10-31T01:23:45;100353.91;;;24.46;49.25
43312;BME280;30041;48.300;16.352;2022-10-31T01:26:14;100351.41;;;24.44;49.13
43312;BME280;30041;48.300;16.352;2022-10-31T01:28:54;100348.97;;;24.43;49.25
43312;BME280;30041;48.300;16.352;2022-10-31T01:31:23;100353.91;;;24.46;49.21
43312;BME280;30041;48.300;16.352;2022-10-31T01:33:49;100351.91;;;24.53;48.94
43312;BME280;30041;48.300;16.352;2022-10-31T01:36:20;100351.19;;;24.46;49.01
43312;BME280;30041;48.300;16.352;2022-10-31T01:38:47;100342.38;;;24.51;49.07
43312;BME280;30041;48.300;16.352;2022-10-31T01:41:15;100337.53;;;24.53;49.06
43312;BME280;30041;48.300;16.352;2022-10-31T01:46:10;100338.34;;;24.53;49.30
43312;BME280;30041;48.300;16.352;2022-10-31T01:48:36;100343.19;;;24.51;49.06
43312;BME280;30041;48.300;16.352;2022-10-31T01:51:02;100338.63;;;24.52;49.20
43312;BME280;30041;48.300;16.352;2022-10-31T01:53:28;100342.59;;;24.49;48.96
43312;BME280;30041;48.300;16.352;2022-10-31T01:55:54;100344.34;;;24.55;49.13
43312;BME280;30041;48.300;16.352;2022-10-31T01:58:23;100333.19;;;24.52;48.98
43312;BME280;30041;48.300;16.352;2022-10-31T02:00:54;100336.13;;;24.50;49.08
43312;BME280;30041;48.300;16.352;2022-10-31T02:03:22;100336.13;;;24.50;49.33
43312;BME280;30041;48.300;16.352;2022-10-31T02:05:48;100332.94;;;24.53;49.06
43312;BME280;30041;48.300;16.352;2022-10-31T02:08:20;100329.63;;;24.51;49.16
43312;BME280;30041;48.300;16.352;2022-10-31T02:10:48;100330.47;;;24.52;49.24
43312;BME280;30041;48.300;16.352;2022-10-31T02:13:15;100325.38;;;24.55;48.91
43312;BME280;30041;48.300;16.352;2022-10-31T02:15:43;100324.81;;;24.53;49.07
43312;BME280;30041;48.300;16.352;2022-10-31T02:18:09;100332.94;;;24.53;49.17
43312;BME280;30041;48.300;16.352;2022-10-31T02:29:13;100329.63;;;24.51;49.20
43312;BME280;30041;48.300;16.352;2022-10-31T02:34:37;100328.81;;;24.51;49.36
43312;BME280;30041;48.300;16.352;2022-10-31T02:37:16;100331.63;;;24.56;48.97
43312;BME280;30041;48.300;16.352;2022-10-31T02:42:39;100325.75;;;24.59;48.94
43312;BME280;30041;48.300;16.352;2022-10-31T02:45:08;100322.78;;;24.60;48.95
43312;BME280;30041;48.300;16.352;2022-10-31T02:47:37;100325.50;;;24.60;48.86
43312;BME280;30041;48.300;16.352;2022-10-31T02:50:11;100331.97;;;24.59;48.97
43312;BME280;30041;48.300;16.352;2022-10-31T02:52:38;100329.75;;;24.56;48.96
43312;BME280;30041;48.300;16.352;2022-10-31T02:57:52;100326.56;;;24.59;49.20
43312;BME280;30041;48.300;16.352;2022-10-31T03:00:18;100329.03;;;24.61;49.06
43312;BME280;30041;48.300;16.352;2022-10-31T03:08:11;100329.84;;;24.61;49.14
43312;BME280;30041;48.300;16.352;2022-10-31T03:10:48;100329.25;;;24.59;48.99
43312;BME280;30041;48.300;16.352;2022-10-31T03:13:31;100330.06;;;24.60;48.93
43312;BME280;30041;48.300;16.352;2022-10-31T03:23:53;100336.91;;;24.62;48.70
43312;BME280;30041;48.300;16.352;2022-10-31T03:26:21;100343.63;;;24.60;48.97
43312;BME280;30041;48.300;16.352;2022-10-31T03:28:52;100345.53;;;24.59;49.12
43312;BME280;30041;48.300;16.352;2022-10-31T03:31:23;100346.34;;;24.60;49.03
43312;BME280;30041;48.300;16.352;2022-10-31T03:33:51;100345.38;;;24.66;48.79
43312;BME280;30041;48.300;16.352;2022-10-31T03:36:17;100348.59;;;24.63;48.84
43312;BME280;30041;48.300;16.352;2022-10-31T03:38:45;100336.75;;;24.69;48.83
43312;BME280;30041;48.300;16.352;2022-10-31T03:41:16;100332.56;;;24.61;48.87
43312;BME280;30041;48.300;16.352;2022-10-31T03:43:48;100338.31;;;24.65;48.85
43312;BME280;30041;48.300;16.352;2022-10-31T03:46:17;100342.66;;;24.66;48.84
43312;BME280;30041;48.300;16.352;2022-10-31T03:48:43;100340.47;;;24.63;49.19
43312;BME280;30041;48.300;16.352;2022-10-31T03:51:21;100341.84;;;24.65;49.05
43312;BME280;30041;48.300;16.352;2022-10-31T03:56:29;100344.47;;;24.60;49.12
43312;BME280;30041;48.300;16.352;2022-10-31T03:59:00;100341.50;;;24.62;48.87
43312;BME280;30041;48.300;16.352;2022-10-31T04:01:29;100346.69;;;24.63;49.07
43312;BME280;30041;48.300;16.352;2022-10-31T04:03:57;100355.41;;;24.65;48.85
43312;BME280;30041;48.300;16.352;2022-10-31T04:06:24;100352.69;;;24.65;48.99
43312;BME280;30041;48.300;16.352;2022-10-31T04:09:00;100358.13;;;24.65;48.80
43312;BME280;30041;48.300;16.352;2022-10-31T04:11:31;100360.09;;;24.70;48.93
43312;BME280;30041;48.300;16.352;2022-10-31T04:13:59;100355.41;;;24.65;48.86
43312;BME280;30041;48.300;16.352;2022-10-31T04:16:26;100359.28;;;24.70;48.62
43312;BME280;30041;48.300;16.352;2022-10-31T04:18:52;100358.44;;;24.69;48.74
43312;BME280;30041;48.300;16.352;2022-10-31T04:21:17;100359.50;;;24.68;48.88
43312;BME280;30041;48.300;16.352;2022-10-31T04:23:43;100367.66;;;24.68;48.77
43312;BME280;30041;48.300;16.352;2022-10-31T04:26:12;100365.16;;;24.67;48.78
43312;BME280;30041;48.300;16.352;2022-10-31T04:28:38;100359.28;;;24.70;48.62
43312;BME280;30041;48.300;16.352;2022-10-31T04:31:03;100364.72;;;24.70;48.71
43312;BME280;30041;48.300;16.352;2022-10-31T04:33:29;100359.75;;;24.67;48.96
43312;BME280;30041;48.300;16.352;2022-10-31T04:35:54;100361.16;;;24.69;48.83
43312;BME280;30041;48.300;16.352;2022-10-31T04:38:20;100361.41;;;24.68;48.70
43312;BME280;30041;48.300;16.352;2022-10-31T04:40:46;100359.59;;;24.73;48.80
43312;BME280;30041;48.300;16.352;2022-10-31T04:43:11;100362.00;;;24.70;48.83
43312;BME280;30041;48.300;16.352;2022-10-31T04:45:37;100371.75;;;24.71;48.81
43312;BME280;30041;48.300;16.352;2022-10-31T04:48:03;100371.25;;;24.74;48.47
43312;BME280;30041;48.300;16.352;2022-10-31T04:50:29;100365.84;;;24.74;48.50
43312;BME280;30041;48.300;16.352;2022-10-31T04:52:54;100369.03;;;24.71;48.66
43312;BME280;30041;48.300;16.352;2022-10-31T04:55:20;100370.94;;;24.70;48.75
43312;BME280;30041;48.300;16.352;2022-10-31T04:57:48;100377.41;;;24.69;48.77
43312;BME280;30041;48.300;16.352;2022-10-31T05:00:17;100379.16;;;24.75;48.93
43312;BME280;30041;48.300;16.352;2022-10-31T05:02:47;100376.69;;;24.74;48.67
43312;BME280;30041;48.300;16.352;2022-10-31T05:05:15;100379.41;;;24.74;48.72
43312;BME280;30041;48.300;16.352;2022-10-31T05:07:41;100378.84;;;24.72;48.81
43312;BME280;30041;48.300;16.352;2022-10-31T05:10:11;100381.06;;;24.75;48.58
43312;BME280;30041;48.300;16.352;2022-10-31T05:12:37;100376.94;;;24.72;48.89
43312;BME280;30041;48.300;16.352;2022-10-31T05:15:04;100377.53;;;24.74;48.64
43312;BME280;30041;48.300;16.352;2022-10-31T05:17:31;100366.19;;;24.77;48.85
43312;BME280;30041;48.300;16.352;2022-10-31T05:19:56;100371.03;;;24.75;48.74
43312;BME280;30041;48.300;16.352;2022-10-31T05:22:22;100369.13;;;24.76;48.52
43312;BME280;30041;48.300;16.352;2022-10-31T05:24:47;100364.28;;;24.78;48.94
43312;BME280;30041;48.300;16.352;2022-10-31T05:27:13;100376.69;;;24.74;48.78
43312;BME280;30041;48.300;16.352;2022-10-31T05:29:38;100379.16;;;24.75;48.85
43312;BME280;30041;48.300;16.352;2022-10-31T05:32:04;100373.75;;;24.75;48.83
43312;BME280;30041;48.300;16.352;2022-10-31T05:34:30;100371.63;;;24.77;48.61
43312;BME280;30041;48.300;16.352;2022-10-31T05:36:55;100374.91;;;24.79;48.51
43312;BME280;30041;48.300;16.352;2022-10-31T05:39:21;100374.31;;;24.77;48.98
43312;BME280;30041;48.300;16.352;2022-10-31T05:41:46;100376.22;;;24.77;48.75
43312;BME280;30041;48.300;16.352;2022-10-31T05:44:12;100376.00;;;24.78;48.70
43312;BME280;30041;48.300;16.352;2022-10-31T05:46:37;100382.47;;;24.77;49.03
43312;BME280;30041;48.300;16.352;2022-10-31T05:49:03;100387.16;;;24.82;48.76
43312;BME280;30041;48.300;16.352;2022-10-31T05:51:28;100386.00;;;24.78;48.89
43312;BME280;30041;48.300;16.352;2022-10-31T05:53:54;100387.38;;;24.80;48.71
43312;BME280;30041;48.300;16.352;2022-10-31T05:56:19;100389.88;;;24.82;48.99
43312;BME280;30041;48.300;16.352;2022-10-31T05:58:45;100392.81;;;24.80;48.69
43312;BME280;30041;48.300;16.352;2022-10-31T06:01:10;100392.56;;;24.82;48.89
43312;BME280;30041;48.300;16.352;2022-10-31T06:03:36;100394.63;;;24.75;48.71
43312;BME280;30041;48.300;16.352;2022-10-31T06:06:01;100399.53;;;24.78;48.65
43312;BME280;30041;48.300;16.352;2022-10-31T06:08:27;100400.03;;;24.75;48.69
43312;BME280;30041;48.300;16.352;2022-10-31T06:10:53;100402.84;;;24.80;48.44
43312;BME280;30041;48.300;16.352;2022-10-31T06:13:18;100407.22;;;24.81;48.65
43312;BME280;30041;48.300;16.352;2022-10-31T06:15:44;100409.44;;;24.84;48.62
43312;BME280;30041;48.300;16.352;2022-10-31T06:18:09;100415.94;;;24.83;48.35
43312;BME280;30041;48.300;16.352;2022-10-31T06:20:35;100419.22;;;24.85;48.60
43312;BME280;30041;48.300;16.352;2022-10-31T06:23:01;100411.66;;;24.87;48.29
43312;BME280;30041;48.300;16.352;2022-10-31T06:25:27;100425.47;;;24.10;48.49
43312;BME280;30041;48.300;16.352;2022-10-31T06:27:53;100425.31;;;23.93;49.61
43312;BME280;30041;48.300;16.352;2022-10-31T06:30:18;100428.09;;;23.74;50.02
43312;BME280;30041;48.300;16.352;2022-10-31T06:32:44;100424.91;;;23.66;49.98
43312;BME280;30041;48.300;16.352;2022-10-31T06:35:09;100417.22;;;23.51;50.43
43312;BME280;30041;48.300;16.352;2022-10-31T06:37:35;100425.34;;;23.51;50.65
43312;BME280;30041;48.300;16.352;2022-10-31T06:40:01;100425.09;;;23.40;50.52
43312;BME280;30041;48.300;16.352;2022-10-31T06:42:26;100426.53;;;23.43;50.76
43312;BME280;30041;48.300;16.352;2022-10-31T06:44:52;100414.41;;;23.46;50.74
43312;BME280;30041;48.300;16.352;2022-10-31T06:47:17;100423.22;;;23.41;50.88
43312;BME280;30041;48.300;16.352;2022-10-31T06:49:43;100422.50;;;23.34;50.84
43312;BME280;30041;48.300;16.352;2022-10-31T06:52:08;100419.31;;;23.37;50.73
43312;BME280;30041;48.300;16.352;2022-10-31T06:54:34;100421.50;;;23.58;49.50
43312;BME280;30041;48.300;16.352;2022-10-31T06:57:00;100423.03;;;23.66;50.01
43312;BME280;30041;48.300;16.352;2022-10-31T06:59:25;100426.03;;;23.76;49.60
43312;BME280;30041;48.300;16.352;2022-10-31T07:01:50;100426.81;;;23.65;48.57
43312;BME280;30041;48.300;16.352;2022-10-31T07:04:16;100428.69;;;23.65;47.63
43312;BME280;30041;48.300;16.352;2022-10-31T07:06:41;100426.41;;;23.50;48.62
43312;BME280;30041;48.300;16.352;2022-10-31T07:09:07;100427.03;;;23.63;48.89
43312;BME280;30041;48.300;16.352;2022-10-31T07:11:33;100432.66;;;23.62;48.81
43312;BME280;30041;48.300;16.352;2022-10-31T07:13:58;100432.22;;;23.65;49.05
43312;BME280;30041;48.300;16.352;2022-10-31T07:16:24;100429.41;;;23.72;48.61
43312;BME280;30041;48.300;16.352;2022-10-31T07:18:50;100429.03;;;23.68;48.91
43312;BME280;30041;48.300;16.352;2022-10-31T07:21:15;100435.53;;;23.67;49.12
43312;BME280;30041;48.300;16.352;2022-10-31T07:23:41;100440.59;;;23.75;49.02
43312;BME280;30041;48.300;16.352;2022-10-31T07:26:08;100435.03;;;23.70;49.38
43312;BME280;30041;48.300;16.352;2022-10-31T07:28:34;100440.38;;;23.89;49.27
43312;BME280;30041;48.300;16.352;2022-10-31T07:31:00;100436.44;;;23.73;49.49
43312;BME280;30041;48.300;16.352;2022-10-31T07:33:25;100441.16;;;23.66;49.35
43312;BME280;30041;48.300;16.352;2022-10-31T07:35:51;100447.25;;;23.61;49.79
43312;BME280;30041;48.300;16.352;2022-10-31T07:38:17;100443.63;;;23.67;49.67
43312;BME280;30041;48.300;16.352;2022-10-31T07:40:43;100447.75;;;23.28;50.60
43312;BME280;30041;48.300;16.352;2022-10-31T07:43:11;100443.34;;;23.15;50.49
43312;BME280;30041;48.300;16.352;2022-10-31T07:45:36;100441.34;;;23.10;50.38
43312;BME280;30041;48.300;16.352;2022-10-31T07:48:02;100437.91;;;23.03;50.66
43312;BME280;30041;48.300;16.352;2022-10-31T07:50:32;100443.53;;;23.02;50.55
43312;BME280;30041;48.300;16.352;2022-10-31T07:53:03;100447.75;;;22.97;50.66
43312;BME280;30041;48.300;16.352;2022-10-31T07:55:30;100449.84;;;22.95;51.16
43312;BME280;30041;48.300;16.352;2022-10-31T07:58:06;100450.66;;;22.96;50.96
43312;BME280;30041;48.300;16.352;2022-10-31T08:00:33;100446.53;;;22.93;51.03
43312;BME280;30041;48.300;16.352;2022-10-31T08:03:09;100449.69;;;22.90;51.13
43312;BME280;30041;48.300;16.352;2022-10-31T08:05:36;100454.25;;;22.90;51.17
43312;BME280;30041;48.300;16.352;2022-10-31T08:08:03;100449.53;;;22.85;51.36
43312;BME280;30041;48.300;16.352;2022-10-31T08:10:29;100459.28;;;22.86;51.29
43312;BME280;30041;48.300;16.352;2022-10-31T08:13:00;100447.91;;;22.84;51.78
43312;BME280;30041;48.300;16.352;2022-10-31T08:15:26;100445.19;;;22.84;51.80
43312;BME280;30041;48.300;16.352;2022-10-31T08:17:52;100442.13;;;22.80;51.69
43312;BME280;30041;48.300;16.352;2022-10-31T08:20:19;100441.66;;;22.84;51.57
43312;BME280;30041;48.300;16.352;2022-10-31T08:22:57;100448.81;;;22.78;51.96
43312;BME280;30041;48.300;16.352;2022-10-31T08:25:23;100448.34;;;22.81;52.18
43312;BME280;30041;48.300;16.352;2022-10-31T08:27:55;100448.00;;;22.77;52.04
43312;BME280;30041;48.300;16.352;2022-10-31T08:30:23;100442.34;;;22.79;52.32
43312;BME280;30041;48.300;16.352;2022-10-31T08:33:08;100437.25;;;22.71;52.44
43312;BME280;30041;48.300;16.352;2022-10-31T08:35:33;100444.44;;;22.77;52.49
43312;BME280;30041;48.300;16.352;2022-10-31T08:37:59;100435.72;;;22.75;52.47
43312;BME280;30041;48.300;16.352;2022-10-31T08:40:27;100448.06;;;22.71;52.49
43312;BME280;30041;48.300;16.352;2022-10-31T08:43:01;100443.25;;;22.73;52.30
43312;BME280;30041;48.300;16.352;2022-10-31T08:45:29;100439.28;;;22.75;52.19
43312;BME280;30041;48.300;16.352;2022-10-31T08:48:06;100441.28;;;22.62;52.14
43312;BME280;30041;48.300;16.352;2022-10-31T08:50:33;100443.41;;;22.59;52.20
43312;BME280;30041;48.300;16.352;2022-10-31T08:53:04;100436.06;;;22.67;52.12
43312;BME280;30041;48.300;16.352;2022-10-31T08:55:30;100435.00;;;22.68;52.46
43312;BME280;30041;48.300;16.352;2022-10-31T08:57:57;100432.53;;;22.66;52.39
43312;BME280;30041;48.300;16.352;2022-10-31T09:00:22;100434.16;;;22.67;52.54
43312;BME280;30041;48.300;16.352;2022-10-31T09:02:56;100439.19;;;22.64;52.48
43312;BME280;30041;48.300;16.352;2022-10-31T09:05:22;100432.16;;;22.63;52.41
43312;BME280;30041;48.300;16.352;2022-10-31T09:07:48;100441.88;;;22.64;52.84
43312;BME280;30041;48.300;16.352;2022-10-31T09:10:14;100436.72;;;22.62;52.76
43312;BME280;30041;48.300;16.352;2022-10-31T09:12:39;100439.66;;;22.61;52.67
43312;BME280;30041;48.300;16.352;2022-10-31T09:15:05;100438.00;;;22.59;52.83
43312;BME280;30041;48.300;16.352;2022-10-31T09:17:31;100441.75;;;22.58;52.86
43312;BME280;30041;48.300;16.352;2022-10-31T09:19:56;100442.34;;;22.61;52.74
43312;BME280;30041;48.300;16.352;2022-10-31T09:22:21;100441.75;;;22.58;52.66
43312;BME280;30041;48.300;16.352;2022-10-31T09:24:47;100445.28;;;22.59;52.89
43312;BME280;30041;48.300;16.352;2022-10-31T09:27:12;100446.34;;;22.58;52.81
43312;BME280;30041;48.300;16.352;2022-10-31T09:29:39;100444.44;;;22.58;52.72
43312;BME280;30041;48.300;16.352;2022-10-31T09:32:04;100442.22;;;22.55;52.77
43312;BME280;30041;48.300;16.352;2022-10-31T09:34:30;100443.84;;;22.56;52.73
43312;BME280;30041;48.300;16.352;2022-10-31T09:36:55;100443.63;;;22.58;52.74
43312;BME280;30041;48.300;16.352;2022-10-31T09:39:21;100441.38;;;22.55;52.96
43312;BME280;30041;48.300;16.352;2022-10-31T09:44:53;100439.81;;;22.47;52.98
43312;BME280;30041;48.300;16.352;2022-10-31T09:47:43;100433.78;;;22.45;52.90
43312;BME280;30041;48.300;16.352;2022-10-31T09:50:28;100439.81;;;22.47;52.94
43312;BME280;30041;48.300;16.352;2022-10-31T09:53:07;100433.94;;;22.50;52.93
43312;BME280;30041;48.300;16.352;2022-10-31T09:55:39;100435.47;;;22.46;53.15
43312;BME280;30041;48.300;16.352;2022-10-31T09:58:07;100438.97;;;22.47;53.23
43312;BME280;30041;48.300;16.352;2022-10-31T10:00:34;100438.97;;;22.47;53.01
43312;BME280;30041;48.300;16.352;2022-10-31T10:05:37;100437.09;;;22.47;53.09
43312;BME280;30041;48.300;16.352;2022-10-31T10:08:20;100438.16;;;22.46;53.05
43312;BME280;30041;48.300;16.352;2022-10-31T10:11:05;100438.59;;;22.43;53.29
43312;BME280;30041;48.300;16.352;2022-10-31T10:13:39;100436.50;;;22.45;52.96
43312;BME280;30041;48.300;16.352;2022-10-31T10:21:39;100430.13;;;22.40;53.25
43312;BME280;30041;48.300;16.352;2022-10-31T10:24:33;100434.94;;;22.37;53.25
43312;BME280;30041;48.300;16.352;2022-10-31T10:28:06;100431.97;;;22.39;53.14
43312;BME280;30041;48.300;16.352;2022-10-31T10:30:15;100424.13;;;22.37;53.10
43312;BME280;30041;48.300;16.352;2022-10-31T10:32:55;100431.16;;;22.38;53.25
43312;BME280;30041;48.300;16.352;2022-10-31T10:35:36;100426.59;;;22.39;53.14
43312;BME280;30041;48.300;16.352;2022-10-31T10:40:37;100424.13;;;22.37;53.15
43312;BME280;30041;48.300;16.352;2022-10-31T10:43:28;100421.03;;;22.34;53.17
43312;BME280;30041;48.300;16.352;2022-10-31T10:48:56;100412.94;;;22.34;53.13
43312;BME280;30041;48.300;16.352;2022-10-31T10:51:31;100421.25;;;22.32;53.36
43312;BME280;30041;48.300;16.352;2022-10-31T10:54:13;100414.81;;;22.33;53.37
43312;BME280;30041;48.300;16.352;2022-10-31T10:59:30;100412.78;;;22.29;53.23
43312;BME280;30041;48.300;16.352;2022-10-31T11:01:57;100403.41;;;22.31;53.36
43312;BME280;30041;48.300;16.352;2022-10-31T11:04:35;100409.63;;;22.32;53.14
43312;BME280;30041;48.300;16.352;2022-10-31T11:07:07;100401.31;;;22.33;53.25
43312;BME280;30041;48.300;16.352;2022-10-31T11:09:34;100403.41;;;22.31;53.37
43312;BME280;30041;48.300;16.352;2022-10-31T11:12:57;100398.47;;;22.28;53.44
43312;BME280;30041;48.300;16.352;2022-10-31T11:15:16;100400.56;;;22.26;53.38
43312;BME280;30041;48.300;16.352;2022-10-31T11:17:51;100406.56;;;22.28;53.24
43312;BME280;30041;48.300;16.352;2022-10-31T11:22:46;100398.91;;;22.25;53.44
43312;BME280;30041;48.300;16.352;2022-10-31T11:25:26;100387.88;;;22.27;53.23
43312;BME280;30041;48.300;16.352;2022-10-31T11:28:02;100391.63;;;22.26;53.38
43312;BME280;30041;48.300;16.352;2022-10-31T11:30:30;100396.00;;;22.27;53.26
43312;BME280;30041;48.300;16.352;2022-10-31T11:32:56;100394.56;;;22.24;53.39
43312;BME280;30041;48.300;16.352;2022-10-31T11:35:24;100383.97;;;22.23;53.57
43312;BME280;30041;48.300;16.352;2022-10-31T11:37:52;100387.88;;;22.27;53.42
43312;BME280;30041;48.300;16.352;2022-10-31T11:40:21;100389.16;;;22.24;53.37
43312;BME280;30041;48.300;16.352;2022-10-31T11:42:48;100393.16;;;22.22;53.58
43312;BME280;30041;48.300;16.352;2022-10-31T11:47:49;100385.22;;;22.20;53.48
43312;BME280;30041;48.300;16.352;2022-10-31T11:50:41;100380.47;;;22.22;53.44
43312;BME280;30041;48.300;16.352;2022-10-31T11:53:17;100373.00;;;22.17;53.39
43312;BME280;30041;48.300;16.352;2022-10-31T11:55:44;100369.03;;;22.20;53.59
43312;BME280;30041;48.300;16.352;2022-10-31T11:58:24;100371.13;;;22.18;53.53
43312;BME280;30041;48.300;16.352;2022-10-31T12:00:52;100367.81;;;22.16;53.60
43312;BME280;30041;48.300;16.352;2022-10-31T12:06:38;100367.00;;;22.15;53.50
43312;BME280;30041;48.300;16.352;2022-10-31T12:09:22;100367.38;;;22.19;53.39
43312;BME280;30041;48.300;16.352;2022-10-31T12:17:36;100360.41;;;22.11;53.50
43312;BME280;30041;48.300;16.352;2022-10-31T12:20:17;100363.69;;;22.13;53.66
43312;BME280;30041;48.300;16.352;2022-10-31T12:23:18;100360.41;;;22.11;53.62
43312;BME280;30041;48.300;16.352;2022-10-31T12:34:02;100358.16;;;22.08;53.63
43312;BME280;30041;48.300;16.352;2022-10-31T12:36:50;100350.06;;;22.08;53.42
43312;BME280;30041;48.300;16.352;2022-10-31T12:39:24;100346.09;;;22.11;53.56
43312;BME280;30041;48.300;16.352;2022-10-31T12:50:12;100345.91;;;22.06;53.55
43312;BME280;30041;48.300;16.352;2022-10-31T12:52:57;100340.50;;;22.06;53.47
43312;BME280;30041;48.300;16.352;2022-10-31T12:55:45;100345.47;;;22.09;53.60
43312;BME280;30041;48.300;16.352;2022-10-31T12:58:24;100351.31;;;22.06;53.58
43312;BME280;30041;48.300;16.352;2022-10-31T13:01:12;100345.91;;;22.06;53.72
43312;BME280;30041;48.300;16.352;2022-10-31T13:04:38;100336.25;;;21.98;53.73
43312;BME280;30041;48.300;16.352;2022-10-31T13:06:36;100335.34;;;22.04;53.60
43312;BME280;30041;48.300;16.352;2022-10-31T13:09:10;100333.47;;;22.05;53.42
43312;BME280;30041;48.300;16.352;2022-10-31T13:11:42;100334.28;;;22.05;53.51
43312;BME280;30041;48.300;16.352;2022-10-31T13:16:59;100331.84;;;22.04;53.41
43312;BME280;30041;48.300;16.352;2022-10-31T13:19:33;100341.78;;;22.03;53.62
43312;BME280;30041;48.300;16.352;2022-10-31T13:22:20;100330.38;;;22.01;53.57
43312;BME280;30041;48.300;16.352;2022-10-31T13:27:51;100323.97;;;22.02;53.20
43312;BME280;30041;48.300;16.352;2022-10-31T13:30:20;100322.06;;;22.03;53.35
43312;BME280;30041;48.300;16.352;2022-10-31T13:41:45;100317.34;;;21.98;53.59
43312;BME280;30041;48.300;16.352;2022-10-31T13:44:25;100312.41;;;21.95;53.57
43312;BME280;30041;48.300;16.352;2022-10-31T13:46:56;100313.59;;;21.99;53.51
43312;BME280;30041;48.300;16.352;2022-10-31T13:49:37;100311.34;;;21.96;53.66
43312;BME280;30041;48.300;16.352;2022-10-31T13:52:14;100307.03;;;21.95;53.73
43312;BME280;30041;48.300;16.352;2022-10-31T13:54:43;100304.31;;;21.95;53.62
43312;BME280;30041;48.300;16.352;2022-10-31T13:57:41;100307.03;;;21.95;53.92
43312;BME280;30041;48.300;16.352;2022-10-31T14:00:24;100312.84;;;21.92;53.52
43312;BME280;30041;48.300;16.352;2022-10-31T14:02:52;100307.38;;;21.98;53.70
43312;BME280;30041;48.300;16.352;2022-10-31T14:05:25;100295.16;;;21.96;53.67
43312;BME280;30041;48.300;16.352;2022-10-31T14:07:52;100293.53;;;21.95;53.87
43312;BME280;30041;48.300;16.352;2022-10-31T14:12:46;100294.56;;;21.94;53.48
43312;BME280;30041;48.300;16.352;2022-10-31T14:15:17;100289.63;;;21.91;53.70
43312;BME280;30041;48.300;16.352;2022-10-31T14:18:06;100288.13;;;21.95;53.46
43312;BME280;30041;48.300;16.352;2022-10-31T14:20:43;100291.44;;;21.97;53.44
43312;BME280;30041;48.300;16.352;2022-10-31T14:28:50;100283.75;;;21.94;53.63
43312;BME280;30041;48.300;16.352;2022-10-31T14:31:37;100281.53;;;21.91;53.62
43312;BME280;30041;48.300;16.352;2022-10-31T14:40:22;100276.94;;;21.91;53.77
43312;BME280;30041;48.300;16.352;2022-10-31T14:46:02;100280.91;;;21.89;53.60
43312;BME280;30041;48.300;16.352;2022-10-31T14:51:17;100277.53;;;21.93;53.55
43312;BME280;30041;48.300;16.352;2022-10-31T14:53:48;100282.72;;;21.95;53.81